createdAt,value
2023-02-23T00:00:01.149Z,75.2
2023-02-23T00:05:01.246Z,89.5
2023-02-23T00:10:01.165Z,103.3
2023-02-23T00:15:01.243Z,97.1
2023-02-23T00:20:01.270Z,115.2
2023-02-23T00:25:03.278Z,104.3
2023-02-23T00:30:06.585Z,95.4
2023-02-23T00:35:06.697Z,87.7
2023-02-23T00:40:01.139Z,96.0
2023-02-23T00:45:01.221Z,86.4
2023-02-23T00:50:01.522Z,86.5
2023-02-23T00:55:02.358Z,80.0
2023-02-23T01:00:01.141Z,62.2
2023-02-23T01:05:01.211Z,62.9
2023-02-23T01:10:01.175Z,61.6
2023-02-23T01:15:01.296Z,54.4
2023-02-23T01:20:06.385Z,47.1
2023-02-23T01:25:01.258Z,64.6
2023-02-23T01:30:01.616Z,69.6
2023-02-23T01:35:01.536Z,71.3
2023-02-23T01:40:01.434Z,75.9
2023-02-23T01:45:01.231Z,82.8
2023-02-23T02:00:01.756Z,69.0
2023-02-23T02:05:02.111Z,72.3
2023-02-23T02:10:01.635Z,72.7
2023-02-23T02:15:02.029Z,72.4
2023-02-23T02:20:02.685Z,72.0
2023-02-23T02:25:02.024Z,71.8
2023-02-23T02:30:01.753Z,70.3
2023-02-23T02:50:01.706Z,62.8
2023-02-23T02:55:02.510Z,47.2
2023-02-23T03:00:01.455Z,57.1
2023-02-23T03:05:01.628Z,61.3
2023-02-23T03:10:01.476Z,64.7
2023-02-23T03:15:01.554Z,67.9
2023-02-23T03:20:01.482Z,78.8
2023-02-23T03:40:06.525Z,91.0
2023-02-23T03:45:01.348Z,87.5
2023-02-23T03:50:01.264Z,87.9
2023-02-23T03:55:01.330Z,88.4
2023-02-23T04:00:01.299Z,87.6
2023-02-23T04:05:01.402Z,89.0
2023-02-23T04:10:01.273Z,92.1
2023-02-23T04:15:01.407Z,96.2
2023-02-23T04:20:01.299Z,99.7
2023-02-23T04:25:01.348Z,100.4
2023-02-23T04:30:01.733Z,101.6
2023-02-23T04:35:02.514Z,103.3
2023-02-23T04:40:01.642Z,102.2
2023-02-23T04:45:01.684Z,100.4
2023-02-23T04:50:01.679Z,101.9
2023-02-23T04:55:01.660Z,101.4
2023-02-23T05:00:01.388Z,98.5
2023-02-23T05:05:01.463Z,97.1
2023-02-23T05:10:01.368Z,97.8
2023-02-23T05:15:01.506Z,100.4
2023-02-23T05:20:01.694Z,99.9
2023-02-23T05:25:06.486Z,102.3
2023-02-23T05:30:01.655Z,105.9
2023-02-23T05:35:03.276Z,106.1
2023-02-23T05:40:01.499Z,105.2
2023-02-23T05:45:01.431Z,106.3
2023-02-23T05:50:01.289Z,106.0
2023-02-23T05:55:01.803Z,101.2
2023-02-23T06:00:01.314Z,99.4
2023-02-23T06:05:01.388Z,99.2
2023-02-23T06:10:01.688Z,97.6
2023-02-23T06:15:06.350Z,98.2
2023-02-23T06:20:02.320Z,109.2
2023-02-23T06:25:01.443Z,109.4
2023-02-23T06:30:01.498Z,112.1
2023-02-23T06:35:01.533Z,115.2
2023-02-23T06:40:01.568Z,114.1
2023-02-23T06:45:01.754Z,105.9
2023-02-23T06:50:06.312Z,108.5
2023-02-23T06:55:01.870Z,104.6
2023-02-23T07:00:01.319Z,101.7
2023-02-23T07:05:01.744Z,102.6
2023-02-23T07:10:01.682Z,103.1
2023-02-23T07:25:01.326Z,100.5
2023-02-23T07:30:01.306Z,96.0
2023-02-23T07:35:02.572Z,93.6
2023-02-23T07:40:02.068Z,92.5
2023-02-23T07:45:01.681Z,89.7
2023-02-23T07:50:01.656Z,88.4
2023-02-23T07:55:01.434Z,89.2
2023-02-23T08:00:01.313Z,88.8
2023-02-23T08:05:06.376Z,89.6
2023-02-23T08:10:01.285Z,93.2
2023-02-23T08:15:01.680Z,92.0
2023-02-23T08:20:01.292Z,92.0
2023-02-23T08:25:01.356Z,91.6
2023-02-23T08:30:01.600Z,91.6
2023-02-23T08:45:02.020Z,82.6
2023-02-23T08:50:01.272Z,75.9
2023-02-23T08:55:01.813Z,74.6
2023-02-23T09:05:01.481Z,75.5
2023-02-23T09:10:01.273Z,82.7
2023-02-23T09:15:01.914Z,88.7
2023-02-23T09:20:01.275Z,90.2
2023-02-23T09:25:01.437Z,94.9
2023-02-23T09:35:01.411Z,94.9
2023-02-23T09:40:01.972Z,98.0
2023-02-23T09:45:01.423Z,96.4
2023-02-23T09:50:01.310Z,98.0
2023-02-23T09:55:01.450Z,100.5
2023-02-23T10:00:01.636Z,102.2
2023-02-23T10:05:01.579Z,103.6
2023-02-23T10:10:01.345Z,104.2
2023-02-23T10:15:01.343Z,101.0
2023-02-23T10:20:01.276Z,98.3
2023-02-23T10:40:02.071Z,83.4
2023-02-23T10:45:01.776Z,85.3
2023-02-23T10:50:01.709Z,86.8
2023-02-23T10:55:01.910Z,89.3
2023-02-23T11:00:01.996Z,88.9
2023-02-23T11:20:02.521Z,96.2
2023-02-23T11:25:01.889Z,94.9
2023-02-23T11:30:01.678Z,95.0
2023-02-23T11:35:01.491Z,91.7
2023-02-23T11:50:02.137Z,95.4
2023-02-23T11:55:02.035Z,95.3
2023-02-23T12:00:02.232Z,100.1
2023-02-23T12:05:02.110Z,98.3
2023-02-23T12:10:02.121Z,101.7
2023-02-23T12:25:01.996Z,100.5
2023-02-23T12:30:03.106Z,104.8
2023-02-23T12:35:02.283Z,104.4
2023-02-23T12:50:02.297Z,107.6
2023-02-23T12:55:01.864Z,101.4
2023-02-23T13:00:01.814Z,94.9
2023-02-23T13:20:01.722Z,104.4
2023-02-23T13:25:04.657Z,107.9
2023-02-23T13:30:01.185Z,105.3
2023-02-23T13:35:06.300Z,105.8
2023-02-23T13:40:01.179Z,107.8
2023-02-23T14:00:02.359Z,105.4
2023-02-23T14:05:02.110Z,90.6
2023-02-23T14:20:01.414Z,104.6
2023-02-23T14:45:01.852Z,80.0
2023-02-23T14:55:01.840Z,71.8
2023-02-23T15:00:02.148Z,65.8
2023-02-23T15:05:02.172Z,48.3
2023-02-23T15:45:01.648Z,18.6
2023-02-23T15:50:02.111Z,24.3
2023-02-23T15:55:01.808Z,24.2
2023-02-23T16:00:01.501Z,19.8
2023-02-23T16:05:01.655Z,11.9
2023-02-23T16:10:01.992Z,7.0
